sensor_id;sensor_type;location;lat;lon;timestamp;pressure;altitude;pressure_sealevel;temperature;humidity
26711;BME280;18311;52.754;18.118;2022-07-29T00:01:58;101013.79;;;14.91;100.00
26711;BME280;18311;52.754;18.118;2022-07-29T00:04:29;101015.63;;;14.91;100.00
26711;BME280;18311;52.754;18.118;2022-07-29T00:07:01;101012.50;;;14.99;100.00
26711;BME280;18311;52.754;18.118;2022-07-29T00:09:34;101017.19;;;14.95;100.00
26711;BME280;18311;52.754;18.118;2022-07-29T00:12:07;101008.25;;;14.95;100.00
26711;BME280;18311;52.754;18.118;2022-07-29T00:14:38;101014.14;;;14.85;100.00
26711;BME280;18311;52.754;18.118;2022-07-29T00:17:13;101014.88;;;14.71;100.00
26711;BME280;18311;52.754;18.118;2022-07-29T00:19:46;101019.01;;;14.61;100.00
26711;BME280;18311;52.754;18.118;2022-07-29T00:22:17;101022.75;;;14.57;100.00
26711;BME280;18311;52.754;18.118;2022-07-29T00:24:49;101020.48;;;14.49;100.00
26711;BME280;18311;52.754;18.118;2022-07-29T00:27:21;101024.52;;;14.41;100.00
26711;BME280;18311;52.754;18.118;2022-07-29T00:29:52;101031.32;;;14.48;100.00
26711;BME280;18311;52.754;18.118;2022-07-29T00:32:25;101028.62;;;14.48;100.00
26711;BME280;18311;52.754;18.118;2022-07-29T00:34:56;101031.55;;;14.43;100.00
26711;BME280;18311;52.754;18.118;2022-07-29T00:37:46;101032.18;;;14.31;100.00
26711;BME280;18311;52.754;18.118;2022-07-29T00:40:17;101027.36;;;14.38;100.00
26711;BME280;18311;52.754;18.118;2022-07-29T00:42:51;101031.95;;;14.35;100.00
26711;BME280;18311;52.754;18.118;2022-07-29T00:45:23;101037.25;;;14.20;100.00
26711;BME280;18311;52.754;18.118;2022-07-29T00:47:54;101044.05;;;14.09;100.00
26711;BME280;18311;52.754;18.118;2022-07-29T00:50:26;101049.91;;;14.18;100.00
26711;BME280;18311;52.754;18.118;2022-07-29T00:52:58;101042.75;;;13.99;100.00
26711;BME280;18311;52.754;18.118;2022-07-29T00:55:31;101045.95;;;14.07;100.00
26711;BME280;18311;52.754;18.118;2022-07-29T00:58:02;101046.09;;;14.04;100.00
26711;BME280;18311;52.754;18.118;2022-07-29T01:00:34;101049.75;;;14.03;100.00
26711;BME280;18311;52.754;18.118;2022-07-29T01:03:07;101042.47;;;14.05;100.00
26711;BME280;18311;52.754;18.118;2022-07-29T01:05:39;101051.11;;;14.12;100.00
26711;BME280;18311;52.754;18.118;2022-07-29T01:08:15;101044.54;;;14.18;100.00
26711;BME280;18311;52.754;18.118;2022-07-29T01:10:47;101043.97;;;14.11;100.00
26711;BME280;18311;52.754;18.118;2022-07-29T01:13:19;101046.59;;;14.12;100.00
26711;BME280;18311;52.754;18.118;2022-07-29T01:15:56;101049.27;;;14.12;100.00
26711;BME280;18311;52.754;18.118;2022-07-29T01:18:43;101050.72;;;13.83;100.00
26711;BME280;18311;52.754;18.118;2022-07-29T01:32:24;101036.66;;;13.95;100.00
26711;BME280;18311;52.754;18.118;2022-07-29T01:35:05;101032.76;;;13.84;100.00
26711;BME280;18311;52.754;18.118;2022-07-29T01:40:29;101029.53;;;13.77;100.00
26711;BME280;18311;52.754;18.118;2022-07-29T01:43:03;101039.19;;;13.62;100.00
26711;BME280;18311;52.754;18.118;2022-07-29T01:46:05;101029.16;;;13.66;100.00
26711;BME280;18311;52.754;18.118;2022-07-29T01:48:55;101034.08;;;13.75;100.00
26711;BME280;18311;52.754;18.118;2022-07-29T01:51:53;101031.78;;;13.67;100.00
26711;BME280;18311;52.754;18.118;2022-07-29T01:54:30;101030.46;;;13.76;100.00
26711;BME280;18311;52.754;18.118;2022-07-29T01:57:02;101036.70;;;13.76;100.00
26711;BME280;18311;52.754;18.118;2022-07-29T01:59:35;101040.78;;;13.66;100.00
26711;BME280;18311;52.754;18.118;2022-07-29T02:02:09;101037.16;;;13.67;100.00
26711;BME280;18311;52.754;18.118;2022-07-29T02:04:43;101032.42;;;13.72;100.00
26711;BME280;18311;52.754;18.118;2022-07-29T02:07:20;101037.95;;;13.69;100.00
26711;BME280;18311;52.754;18.118;2022-07-29T02:09:52;101032.50;;;13.71;100.00
26711;BME280;18311;52.754;18.118;2022-07-29T02:12:26;101028.16;;;13.68;100.00
26711;BME280;18311;52.754;18.118;2022-07-29T02:15:01;101028.66;;;13.57;100.00
26711;BME280;18311;52.754;18.118;2022-07-29T02:17:44;101028.66;;;13.57;100.00
26711;BME280;18311;52.754;18.118;2022-07-29T02:20:16;101030.89;;;13.29;100.00
26711;BME280;18311;52.754;18.118;2022-07-29T02:22:49;101022.88;;;13.48;100.00
26711;BME280;18311;52.754;18.118;2022-07-29T02:25:23;101015.61;;;13.50;100.00
26711;BME280;18311;52.754;18.118;2022-07-29T02:27:57;101020.05;;;13.51;100.00
26711;BME280;18311;52.754;18.118;2022-07-29T02:30:31;101015.81;;;13.45;100.00
26711;BME280;18311;52.754;18.118;2022-07-29T02:33:04;101024.25;;;13.37;100.00
26711;BME280;18311;52.754;18.118;2022-07-29T02:35:36;101023.15;;;13.41;100.00
26711;BME280;18311;52.754;18.118;2022-07-29T02:38:12;101019.67;;;13.39;100.00
26711;BME280;18311;52.754;18.118;2022-07-29T02:41:04;101027.80;;;13.38;100.00
26711;BME280;18311;52.754;18.118;2022-07-29T02:43:36;101031.03;;;13.26;100.00
26711;BME280;18311;52.754;18.118;2022-07-29T02:46:11;101038.95;;;13.29;100.00
26711;BME280;18311;52.754;18.118;2022-07-29T02:48:51;101029.65;;;13.17;100.00
26711;BME280;18311;52.754;18.118;2022-07-29T02:51:19;101027.63;;;13.22;100.00
26711;BME280;18311;52.754;18.118;2022-07-29T02:53:55;101023.63;;;13.31;100.00
26711;BME280;18311;52.754;18.118;2022-07-29T02:56:29;101012.02;;;13.30;100.00
26711;BME280;18311;52.754;18.118;2022-07-29T02:59:06;101008.69;;;13.25;100.00
26711;BME280;18311;52.754;18.118;2022-07-29T03:01:40;101010.03;;;13.35;100.00
26711;BME280;18311;52.754;18.118;2022-07-29T03:04:13;101017.67;;;13.24;100.00
26711;BME280;18311;52.754;18.118;2022-07-29T03:06:47;101026.14;;;13.35;100.00
26711;BME280;18311;52.754;18.118;2022-07-29T03:09:20;101016.81;;;13.23;100.00
26711;BME280;18311;52.754;18.118;2022-07-29T03:11:52;101021.06;;;13.09;100.00
26711;BME280;18311;52.754;18.118;2022-07-29T03:14:24;101018.91;;;13.17;100.00
26711;BME280;18311;52.754;18.118;2022-07-29T03:16:56;101014.50;;;13.16;100.00
26711;BME280;18311;52.754;18.118;2022-07-29T03:19:28;101014.92;;;13.26;100.00
26711;BME280;18311;52.754;18.118;2022-07-29T03:22:04;101011.51;;;13.22;100.00
26711;BME280;18311;52.754;18.118;2022-07-29T03:24:43;101008.95;;;13.19;100.00
26711;BME280;18311;52.754;18.118;2022-07-29T03:27:16;101012.95;;;13.29;100.00
26711;BME280;18311;52.754;18.118;2022-07-29T03:29:47;101019.81;;;13.36;100.00
26711;BME280;18311;52.754;18.118;2022-07-29T03:32:19;101011.75;;;13.36;100.00
26711;BME280;18311;52.754;18.118;2022-07-29T03:34:52;101011.75;;;13.36;100.00
26711;BME280;18311;52.754;18.118;2022-07-29T03:37:24;101017.19;;;13.35;100.00
26711;BME280;18311;52.754;18.118;2022-07-29T03:39:57;101016.78;;;13.44;100.00
26711;BME280;18311;52.754;18.118;2022-07-29T03:42:31;101015.09;;;13.41;100.00
26711;BME280;18311;52.754;18.118;2022-07-29T03:45:12;101018.16;;;13.34;100.00
26711;BME280;18311;52.754;18.118;2022-07-29T03:47:42;101019.74;;;13.38;100.00
26711;BME280;18311;52.754;18.118;2022-07-29T03:50:14;101023.94;;;13.44;100.00
26711;BME280;18311;52.754;18.118;2022-07-29T03:52:46;101023.45;;;13.35;100.00
26711;BME280;18311;52.754;18.118;2022-07-29T03:55:18;101028.59;;;13.40;100.00
26711;BME280;18311;52.754;18.118;2022-07-29T03:57:50;101020.19;;;13.48;100.00
26711;BME280;18311;52.754;18.118;2022-07-29T04:00:23;101018.94;;;13.55;100.00
26711;BME280;18311;52.754;18.118;2022-07-29T04:02:56;101021.31;;;13.61;100.00
26711;BME280;18311;52.754;18.118;2022-07-29T04:05:27;101025.48;;;13.49;100.00
26711;BME280;18311;52.754;18.118;2022-07-29T04:08:00;101019.59;;;13.60;100.00
26711;BME280;18311;52.754;18.118;2022-07-29T04:10:32;101017.16;;;13.73;100.00
26711;BME280;18311;52.754;18.118;2022-07-29T04:13:06;101017.66;;;13.81;100.00
26711;BME280;18311;52.754;18.118;2022-07-29T04:15:36;101018.01;;;13.56;100.00
26711;BME280;18311;52.754;18.118;2022-07-29T04:18:08;101012.58;;;13.75;100.00
26711;BME280;18311;52.754;18.118;2022-07-29T04:20:41;101015.30;;;13.92;100.00
26711;BME280;18311;52.754;18.118;2022-07-29T04:23:12;101019.67;;;13.95;100.00
26711;BME280;18311;52.754;18.118;2022-07-29T04:25:44;101010.50;;;14.16;100.00
26711;BME280;18311;52.754;18.118;2022-07-29T04:28:15;101024.97;;;13.96;100.00
26711;BME280;18311;52.754;18.118;2022-07-29T04:30:47;101028.86;;;14.26;100.00
26711;BME280;18311;52.754;18.118;2022-07-29T04:33:18;101031.88;;;14.37;100.00
26711;BME280;18311;52.754;18.118;2022-07-29T04:35:51;101034.42;;;14.23;100.00
26711;BME280;18311;52.754;18.118;2022-07-29T04:38:24;101037.11;;;14.58;100.00
26711;BME280;18311;52.754;18.118;2022-07-29T04:40:55;101041.32;;;14.63;100.00
26711;BME280;18311;52.754;18.118;2022-07-29T04:43:26;101035.31;;;14.58;100.00
26711;BME280;18311;52.754;18.118;2022-07-29T04:46:00;101042.47;;;14.93;100.00
26711;BME280;18311;52.754;18.118;2022-07-29T04:48:31;101038.28;;;15.20;100.00
26711;BME280;18311;52.754;18.118;2022-07-29T04:51:03;101038.28;;;15.20;100.00
26711;BME280;18311;52.754;18.118;2022-07-29T04:53:34;101037.61;;;15.48;100.00
26711;BME280;18311;52.754;18.118;2022-07-29T04:56:06;101033.00;;;15.66;100.00
26711;BME280;18311;52.754;18.118;2022-07-29T04:58:38;101035.17;;;15.92;100.00
26711;BME280;18311;52.754;18.118;2022-07-29T05:01:09;101034.48;;;15.88;100.00
26711;BME280;18311;52.754;18.118;2022-07-29T05:03:41;101040.16;;;15.83;100.00
26711;BME280;18311;52.754;18.118;2022-07-29T05:06:12;101040.87;;;16.17;100.00
26711;BME280;18311;52.754;18.118;2022-07-29T05:08:44;101033.75;;;16.47;100.00
26711;BME280;18311;52.754;18.118;2022-07-29T05:11:15;101036.20;;;16.05;100.00
26711;BME280;18311;52.754;18.118;2022-07-29T05:13:48;101029.14;;;16.63;100.00
26711;BME280;18311;52.754;18.118;2022-07-29T05:16:20;101026.34;;;16.65;100.00
26711;BME280;18311;52.754;18.118;2022-07-29T05:18:51;101027.44;;;16.76;100.00
26711;BME280;18311;52.754;18.118;2022-07-29T05:21:23;101035.08;;;16.84;100.00
26711;BME280;18311;52.754;18.118;2022-07-29T05:23:54;101021.58;;;16.84;100.00
26711;BME280;18311;52.754;18.118;2022-07-29T05:26:25;101031.73;;;17.09;100.00
26711;BME280;18311;52.754;18.118;2022-07-29T05:28:57;101027.58;;;17.18;100.00
26711;BME280;18311;52.754;18.118;2022-07-29T05:31:29;101024.73;;;17.48;100.00
26711;BME280;18311;52.754;18.118;2022-07-29T05:34:00;101026.73;;;17.59;100.00
26711;BME280;18311;52.754;18.118;2022-07-29T05:36:31;101013.30;;;17.58;100.00
26711;BME280;18311;52.754;18.118;2022-07-29T05:39:03;101023.31;;;17.70;100.00
26711;BME280;18311;52.754;18.118;2022-07-29T05:41:34;101012.77;;;17.80;100.00
26711;BME280;18311;52.754;18.118;2022-07-29T05:44:06;101015.25;;;17.55;100.00
26711;BME280;18311;52.754;18.118;2022-07-29T05:46:37;101016.66;;;18.03;100.00
26711;BME280;18311;52.754;18.118;2022-07-29T05:49:10;101008.47;;;18.17;100.00
26711;BME280;18311;52.754;18.118;2022-07-29T05:51:45;101004.50;;;18.23;100.00
26711;BME280;18311;52.754;18.118;2022-07-29T05:54:17;101001.90;;;18.21;100.00
26711;BME280;18311;52.754;18.118;2022-07-29T05:56:50;100996.48;;;18.21;100.00
26711;BME280;18311;52.754;18.118;2022-07-29T05:59:21;100991.38;;;18.17;100.00
26711;BME280;18311;52.754;18.118;2022-07-29T06:01:54;101004.77;;;18.45;100.00
26711;BME280;18311;52.754;18.118;2022-07-29T06:04:28;100993.48;;;18.52;100.00
26711;BME280;18311;52.754;18.118;2022-07-29T06:07:00;100991.33;;;18.57;100.00
26711;BME280;18311;52.754;18.118;2022-07-29T06:09:31;100995.88;;;18.69;100.00
26711;BME280;18311;52.754;18.118;2022-07-29T06:12:05;100982.67;;;18.77;100.00
26711;BME280;18311;52.754;18.118;2022-07-29T06:14:36;100984.40;;;18.65;100.00
26711;BME280;18311;52.754;18.118;2022-07-29T06:17:08;100983.22;;;19.08;100.00
26711;BME280;18311;52.754;18.118;2022-07-29T06:19:40;100981.37;;;18.96;100.00
26711;BME280;18311;52.754;18.118;2022-07-29T06:22:12;100984.61;;;19.14;100.00
26711;BME280;18311;52.754;18.118;2022-07-29T06:24:45;100992.22;;;19.09;100.00
26711;BME280;18311;52.754;18.118;2022-07-29T06:27:17;100990.20;;;19.36;100.00
26711;BME280;18311;52.754;18.118;2022-07-29T06:29:48;100991.96;;;19.24;100.00
26711;BME280;18311;52.754;18.118;2022-07-29T06:32:19;100998.70;;;19.19;100.00
26711;BME280;18311;52.754;18.118;2022-07-29T06:34:53;100994.47;;;19.52;100.00
26711;BME280;18311;52.754;18.118;2022-07-29T06:37:26;100983.34;;;19.43;100.00
26711;BME280;18311;52.754;18.118;2022-07-29T06:39:59;100984.60;;;19.88;100.00
26711;BME280;18311;52.754;18.118;2022-07-29T06:42:49;100982.59;;;20.03;100.00
26711;BME280;18311;52.754;18.118;2022-07-29T06:45:21;100984.70;;;20.10;100.00
26711;BME280;18311;52.754;18.118;2022-07-29T06:47:55;100977.53;;;20.09;100.00
26711;BME280;18311;52.754;18.118;2022-07-29T06:50:26;100984.47;;;20.13;100.00
26711;BME280;18311;52.754;18.118;2022-07-29T06:53:00;100989.19;;;20.23;100.00
26711;BME280;18311;52.754;18.118;2022-07-29T06:55:32;100975.91;;;20.42;100.00
26711;BME280;18311;52.754;18.118;2022-07-29T06:58:03;100977.95;;;20.74;100.00
26711;BME280;18311;52.754;18.118;2022-07-29T07:00:36;100982.56;;;20.85;100.00
26711;BME280;18311;52.754;18.118;2022-07-29T07:03:09;100975.23;;;20.74;100.00
26711;BME280;18311;52.754;18.118;2022-07-29T07:05:41;100973.79;;;20.81;100.00
26711;BME280;18311;52.754;18.118;2022-07-29T07:08:13;100974.36;;;21.30;100.00
26711;BME280;18311;52.754;18.118;2022-07-29T07:10:46;100973.91;;;21.02;100.00
26711;BME280;18311;52.754;18.118;2022-07-29T07:13:19;100965.48;;;21.05;100.00
26711;BME280;18311;52.754;18.118;2022-07-29T07:15:50;100963.72;;;21.38;100.00
26711;BME280;18311;52.754;18.118;2022-07-29T07:18:22;100958.63;;;21.56;100.00
26711;BME280;18311;52.754;18.118;2022-07-29T07:20:54;100959.77;;;21.54;100.00
26711;BME280;18311;52.754;18.118;2022-07-29T07:23:25;100960.77;;;21.30;100.00
26711;BME280;18311;52.754;18.118;2022-07-29T07:25:57;100960.73;;;21.64;100.00
26711;BME280;18311;52.754;18.118;2022-07-29T07:28:29;100964.77;;;21.81;100.00
26711;BME280;18311;52.754;18.118;2022-07-29T07:31:01;100972.15;;;21.90;100.00
26711;BME280;18311;52.754;18.118;2022-07-29T07:33:32;100971.30;;;21.90;100.00
26711;BME280;18311;52.754;18.118;2022-07-29T07:36:04;100965.87;;;21.78;100.00
26711;BME280;18311;52.754;18.118;2022-07-29T07:38:35;100959.16;;;22.15;100.00
26711;BME280;18311;52.754;18.118;2022-07-29T07:41:08;100963.60;;;21.95;100.00
26711;BME280;18311;52.754;18.118;2022-07-29T07:43:40;100959.95;;;22.05;100.00
26711;BME280;18311;52.754;18.118;2022-07-29T07:46:12;100955.45;;;22.16;100.00
26711;BME280;18311;52.754;18.118;2022-07-29T07:48:45;100960.94;;;22.37;100.00
26711;BME280;18311;52.754;18.118;2022-07-29T07:51:16;100964.23;;;22.61;100.00
26711;BME280;18311;52.754;18.118;2022-07-29T07:53:48;100969.36;;;22.55;100.00
26711;BME280;18311;52.754;18.118;2022-07-29T07:56:20;100960.62;;;22.61;100.00
26711;BME280;18311;52.754;18.118;2022-07-29T07:58:52;100968.00;;;22.07;100.00
26711;BME280;18311;52.754;18.118;2022-07-29T08:01:24;100961.66;;;22.39;100.00
26711;BME280;18311;52.754;18.118;2022-07-29T08:03:55;100974.69;;;22.35;100.00
26711;BME280;18311;52.754;18.118;2022-07-29T08:06:28;100967.62;;;22.54;100.00
26711;BME280;18311;52.754;18.118;2022-07-29T08:09:04;100968.80;;;22.61;100.00
26711;BME280;18311;52.754;18.118;2022-07-29T08:11:45;100963.09;;;22.64;100.00
26711;BME280;18311;52.754;18.118;2022-07-29T08:14:19;100973.86;;;22.66;100.00
26711;BME280;18311;52.754;18.118;2022-07-29T08:16:51;100968.05;;;22.49;100.00
26711;BME280;18311;52.754;18.118;2022-07-29T08:19:22;100963.09;;;22.64;100.00
26711;BME280;18311;52.754;18.118;2022-07-29T08:21:54;100968.56;;;22.95;100.00
26711;BME280;18311;52.754;18.118;2022-07-29T08:24:26;100963.52;;;22.90;100.00
26711;BME280;18311;52.754;18.118;2022-07-29T08:27:16;100963.11;;;22.95;100.00
26711;BME280;18311;52.754;18.118;2022-07-29T08:29:49;100959.45;;;23.06;100.00
26711;BME280;18311;52.754;18.118;2022-07-29T08:32:21;100963.27;;;23.24;100.00
26711;BME280;18311;52.754;18.118;2022-07-29T08:34:54;100967.25;;;23.20;100.00
26711;BME280;18311;52.754;18.118;2022-07-29T08:37:41;100961.02;;;23.49;100.00
26711;BME280;18311;52.754;18.118;2022-07-29T08:40:12;100967.95;;;23.12;100.00
26711;BME280;18311;52.754;18.118;2022-07-29T08:42:44;100965.33;;;22.80;100.00
26711;BME280;18311;52.754;18.118;2022-07-29T08:45:16;100968.77;;;22.82;100.00
26711;BME280;18311;52.754;18.118;2022-07-29T08:47:48;100983.24;;;23.04;100.00
26711;BME280;18311;52.754;18.118;2022-07-29T08:50:19;100972.16;;;23.26;100.00
26711;BME280;18311;52.754;18.118;2022-07-29T08:52:51;100970.36;;;23.06;100.00
26711;BME280;18311;52.754;18.118;2022-07-29T08:55:25;100977.18;;;23.31;100.00
26711;BME280;18311;52.754;18.118;2022-07-29T08:57:57;100973.47;;;23.32;100.00
26711;BME280;18311;52.754;18.118;2022-07-29T09:00:30;100974.42;;;22.90;100.00
26711;BME280;18311;52.754;18.118;2022-07-29T09:03:02;100972.30;;;23.25;100.00
26711;BME280;18311;52.754;18.118;2022-07-29T09:05:35;100963.09;;;23.26;100.00
26711;BME280;18311;52.754;18.118;2022-07-29T09:08:15;100963.34;;;23.13;100.00
26711;BME280;18311;52.754;18.118;2022-07-29T09:10:47;100961.97;;;23.28;100.00
26711;BME280;18311;52.754;18.118;2022-07-29T09:13:20;100963.05;;;22.85;100.00
26711;BME280;18311;52.754;18.118;2022-07-29T09:15:52;100972.82;;;23.09;100.00
26711;BME280;18311;52.754;18.118;2022-07-29T09:18:38;100965.36;;;23.11;100.00
26711;BME280;18311;52.754;18.118;2022-07-29T09:21:11;100970.28;;;23.27;100.00
26711;BME280;18311;52.754;18.118;2022-07-29T09:24:07;100967.80;;;23.64;100.00
26711;BME280;18311;52.754;18.118;2022-07-29T09:26:45;100964.21;;;23.73;100.00
26711;BME280;18311;52.754;18.118;2022-07-29T09:29:30;100968.56;;;23.86;100.00
26711;BME280;18311;52.754;18.118;2022-07-29T09:32:12;100957.36;;;24.08;100.00
26711;BME280;18311;52.754;18.118;2022-07-29T09:34:46;100960.81;;;23.91;100.00
26711;BME280;18311;52.754;18.118;2022-07-29T09:37:30;100956.77;;;24.24;100.00
26711;BME280;18311;52.754;18.118;2022-07-29T09:40:10;100958.50;;;24.16;96.93
26711;BME280;18311;52.754;18.118;2022-07-29T09:42:38;100954.91;;;24.15;90.59
26711;BME280;18311;52.754;18.118;2022-07-29T09:45:10;100955.45;;;24.28;88.39
26711;BME280;18311;52.754;18.118;2022-07-29T09:47:47;100953.48;;;23.82;100.00
26711;BME280;18311;52.754;18.118;2022-07-29T09:50:20;100945.28;;;23.91;100.00
26711;BME280;18311;52.754;18.118;2022-07-29T09:52:54;100948.73;;;23.84;100.00
26711;BME280;18311;52.754;18.118;2022-07-29T09:55:28;100940.51;;;24.23;100.00
26711;BME280;18311;52.754;18.118;2022-07-29T09:58:20;100942.34;;;24.42;100.00
26711;BME280;18311;52.754;18.118;2022-07-29T10:00:53;100940.81;;;24.00;100.00
26711;BME280;18311;52.754;18.118;2022-07-29T10:03:25;100934.49;;;23.90;77.00
26711;BME280;18311;52.754;18.118;2022-07-29T10:06:10;100929.01;;;24.09;79.90
26711;BME280;18311;52.754;18.118;2022-07-29T10:08:44;100947.67;;;24.34;76.32
26711;BME280;18311;52.754;18.118;2022-07-29T10:11:18;100943.33;;;24.50;64.90
26711;BME280;18311;52.754;18.118;2022-07-29T10:13:49;100943.31;;;25.08;61.17
26711;BME280;18311;52.754;18.118;2022-07-29T10:16:21;100942.70;;;25.41;58.35
26711;BME280;18311;52.754;18.118;2022-07-29T10:18:53;100939.91;;;25.87;53.90
26711;BME280;18311;52.754;18.118;2022-07-29T10:21:27;100941.27;;;26.01;54.98
26711;BME280;18311;52.754;18.118;2022-07-29T10:24:01;100938.58;;;25.55;52.66
26711;BME280;18311;52.754;18.118;2022-07-29T10:26:36;100934.50;;;25.59;55.35
26711;BME280;18311;52.754;18.118;2022-07-29T10:29:12;100931.31;;;24.81;54.44
26711;BME280;18311;52.754;18.118;2022-07-29T10:44:09;100933.71;;;25.49;48.44
26711;BME280;18311;52.754;18.118;2022-07-29T10:46:42;100922.74;;;25.31;49.28
26711;BME280;18311;52.754;18.118;2022-07-29T10:49:16;100930.19;;;25.11;47.69
26711;BME280;18311;52.754;18.118;2022-07-29T10:54:40;100916.25;;;25.04;50.12
26711;BME280;18311;52.754;18.118;2022-07-29T10:57:30;100912.48;;;25.05;49.71
26711;BME280;18311;52.754;18.118;2022-07-29T11:02:47;100913.20;;;25.35;52.96
26711;BME280;18311;52.754;18.118;2022-07-29T11:05:21;100895.23;;;25.87;51.88
26711;BME280;18311;52.754;18.118;2022-07-29T11:10:52;100897.73;;;25.80;44.10
26711;BME280;18311;52.754;18.118;2022-07-29T11:16:57;100894.00;;;25.99;44.20
26711;BME280;18311;52.754;18.118;2022-07-29T11:21:49;100903.38;;;26.14;45.42
26711;BME280;18311;52.754;18.118;2022-07-29T11:24:25;100893.34;;;26.05;44.44
26711;BME280;18311;52.754;18.118;2022-07-29T11:27:18;100893.27;;;26.41;44.47
26711;BME280;18311;52.754;18.118;2022-07-29T11:29:55;100891.95;;;26.01;43.22
26711;BME280;18311;52.754;18.118;2022-07-29T11:32:37;100902.20;;;26.69;43.76
26711;BME280;18311;52.754;18.118;2022-07-29T11:35:14;100885.27;;;26.74;42.47
26711;BME280;18311;52.754;18.118;2022-07-29T11:40:41;100883.27;;;27.43;44.50
26711;BME280;18311;52.754;18.118;2022-07-29T11:43:28;100882.59;;;26.30;43.09
26711;BME280;18311;52.754;18.118;2022-07-29T11:45:49;100892.88;;;26.10;43.54
26711;BME280;18311;52.754;18.118;2022-07-29T11:48:22;100879.38;;;25.72;45.64
26711;BME280;18311;52.754;18.118;2022-07-29T11:50:55;100881.77;;;25.75;45.38
26711;BME280;18311;52.754;18.118;2022-07-29T11:53:27;100876.14;;;25.77;44.77
26711;BME280;18311;52.754;18.118;2022-07-29T11:56:01;100874.77;;;26.17;45.73
26711;BME280;18311;52.754;18.118;2022-07-29T11:58:34;100870.89;;;26.28;46.24
26711;BME280;18311;52.754;18.118;2022-07-29T12:01:06;100871.97;;;26.35;46.35
26711;BME280;18311;52.754;18.118;2022-07-29T12:03:38;100861.38;;;26.40;46.22
26711;BME280;18311;52.754;18.118;2022-07-29T12:06:13;100867.19;;;25.93;48.13
26711;BME280;18311;52.754;18.118;2022-07-29T12:08:47;100872.62;;;26.29;46.14
26711;BME280;18311;52.754;18.118;2022-07-29T12:11:19;100862.83;;;26.26;46.35
26711;BME280;18311;52.754;18.118;2022-07-29T12:13:52;100861.48;;;26.56;47.39
26711;BME280;18311;52.754;18.118;2022-07-29T12:16:36;100852.62;;;27.05;47.63
26711;BME280;18311;52.754;18.118;2022-07-29T12:19:02;100858.84;;;27.16;46.68
26711;BME280;18311;52.754;18.118;2022-07-29T12:21:52;100858.84;;;27.16;46.68
26711;BME280;18311;52.754;18.118;2022-07-29T12:24:26;100852.69;;;26.18;46.99
26711;BME280;18311;52.754;18.118;2022-07-29T12:27:00;100858.77;;;26.30;47.84
26711;BME280;18311;52.754;18.118;2022-07-29T12:29:31;100849.70;;;26.04;48.39
26711;BME280;18311;52.754;18.118;2022-07-29T12:32:05;100853.60;;;26.27;48.04
26711;BME280;18311;52.754;18.118;2022-07-29T12:34:38;100849.09;;;26.79;45.83
26711;BME280;18311;52.754;18.118;2022-07-29T12:37:09;100843.44;;;26.46;46.33
26711;BME280;18311;52.754;18.118;2022-07-29T12:39:42;100852.36;;;26.48;45.37
26711;BME280;18311;52.754;18.118;2022-07-29T12:42:17;100856.99;;;25.95;47.45
26711;BME280;18311;52.754;18.118;2022-07-29T12:44:50;100854.25;;;25.95;46.78
26711;BME280;18311;52.754;18.118;2022-07-29T12:47:22;100845.99;;;26.47;45.48
26711;BME280;18311;52.754;18.118;2022-07-29T12:50:13;100841.92;;;26.51;45.56
26711;BME280;18311;52.754;18.118;2022-07-29T12:52:49;100848.72;;;26.73;43.95
26711;BME280;18311;52.754;18.118;2022-07-29T12:55:40;100841.25;;;26.57;44.59
26711;BME280;18311;52.754;18.118;2022-07-29T12:58:12;100837.92;;;27.23;46.30
26711;BME280;18311;52.754;18.118;2022-07-29T13:00:43;100832.31;;;27.41;43.29
26711;BME280;18311;52.754;18.118;2022-07-29T13:03:15;100827.16;;;27.62;41.53
26711;BME280;18311;52.754;18.118;2022-07-29T13:05:48;100825.62;;;27.52;39.79
26711;BME280;18311;52.754;18.118;2022-07-29T13:08:20;100822.97;;;27.09;38.53
26711;BME280;18311;52.754;18.118;2022-07-29T13:10:52;100816.53;;;27.51;38.06
26711;BME280;18311;52.754;18.118;2022-07-29T13:13:23;100817.58;;;27.91;37.85
26711;BME280;18311;52.754;18.118;2022-07-29T13:16:08;100820.31;;;27.66;36.72
26711;BME280;18311;52.754;18.118;2022-07-29T13:18:41;100813.08;;;27.90;38.26
26711;BME280;18311;52.754;18.118;2022-07-29T13:21:14;100812.06;;;27.34;38.52
26711;BME280;18311;52.754;18.118;2022-07-29T13:23:47;100806.56;;;27.34;39.05
26711;BME280;18311;52.754;18.118;2022-07-29T13:26:18;100817.57;;;27.66;37.85
26711;BME280;18311;52.754;18.118;2022-07-29T13:28:50;100822.95;;;27.17;39.12
26711;BME280;18311;52.754;18.118;2022-07-29T13:31:22;100809.77;;;27.12;38.13
26711;BME280;18311;52.754;18.118;2022-07-29T13:33:53;100801.72;;;27.19;39.02
26711;BME280;18311;52.754;18.118;2022-07-29T13:36:24;100799.87;;;27.28;39.03
26711;BME280;18311;52.754;18.118;2022-07-29T13:38:56;100798.34;;;27.58;38.07
26711;BME280;18311;52.754;18.118;2022-07-29T13:41:28;100794.52;;;27.26;38.98
26711;BME280;18311;52.754;18.118;2022-07-29T13:44:00;100793.86;;;27.33;38.89
26711;BME280;18311;52.754;18.118;2022-07-29T13:46:32;100797.52;;;26.90;40.30
26711;BME280;18311;52.754;18.118;2022-07-29T13:49:08;100784.58;;;26.66;39.93
26711;BME280;18311;52.754;18.118;2022-07-29T13:51:41;100789.34;;;27.07;40.13